createdAt,value
2023-02-24T00:02:15.209Z,96432.66
2023-02-24T00:04:44.225Z,96437.31
2023-02-24T00:07:14.096Z,96434.16
2023-02-24T00:09:45.194Z,96422.34
2023-02-24T00:12:17.061Z,96424.44
2023-02-24T00:14:47.345Z,96420.91
2023-02-24T00:17:15.778Z,96417.25
2023-02-24T00:19:46.397Z,96411.03
2023-02-24T00:22:15.075Z,96410.72
2023-02-24T00:24:44.765Z,96405.91
2023-02-24T00:27:13.783Z,96414.06
2023-02-24T00:29:47.460Z,96402.22
2023-02-24T00:32:16.036Z,96406.50
2023-02-24T00:34:44.570Z,96411.25
2023-02-24T00:37:15.511Z,96404.72
2023-02-24T00:39:48.060Z,96402.47
2023-02-24T00:42:16.787Z,96389.91
2023-02-24T00:44:48.009Z,96399.31
2023-02-24T00:47:18.696Z,96392.16
2023-02-24T00:49:48.289Z,96395.19
2023-02-24T00:52:20.112Z,96396.22
2023-02-24T00:54:51.233Z,96397.84
2023-02-24T00:57:21.531Z,96394.00
2023-02-24T00:59:52.715Z,96404.06
2023-02-24T01:02:21.586Z,96395.94
2023-02-24T01:04:54.219Z,96389.53
2023-02-24T01:07:23.274Z,96373.38
2023-02-24T01:09:54.534Z,96367.41
2023-02-24T01:12:41.803Z,96359.19
2023-02-24T01:15:12.673Z,96363.28
2023-02-24T01:17:44.263Z,96375.06
2023-02-24T01:20:18.416Z,96377.47
2023-02-24T01:22:50.232Z,96376.50
2023-02-24T01:25:21.680Z,96362.09
2023-02-24T01:27:50.902Z,96351.63
2023-02-24T01:30:20.694Z,96354.50
2023-02-24T01:32:49.609Z,96360.59
2023-02-24T01:35:18.764Z,96358.19
2023-02-24T01:37:47.225Z,96356.47
2023-02-24T01:40:21.245Z,96353.59
2023-02-24T01:42:53.018Z,96349.97
2023-02-24T01:45:26.571Z,96340.03
2023-02-24T01:48:00.185Z,96333.28
2023-02-24T01:50:30.453Z,96324.78
2023-02-24T01:53:04.016Z,96316.44
2023-02-24T01:55:39.257Z,96321.56
2023-02-24T01:58:20.150Z,96320.31
2023-02-24T02:00:49.146Z,96320.63
2023-02-24T02:03:33.217Z,96322.41
2023-02-24T02:06:05.529Z,96320.03
2023-02-24T02:08:37.136Z,96325.19
2023-02-24T02:11:10.000Z,96319.13
2023-02-24T02:13:45.326Z,96313.50
2023-02-24T02:16:54.469Z,96310.16
2023-02-24T02:20:17.802Z,96312.34
2023-02-24T02:23:37.668Z,96312.16
2023-02-24T02:26:35.880Z,96311.00
2023-02-24T02:30:01.204Z,96307.66
2023-02-24T02:33:02.232Z,96305.72
2023-02-24T02:35:37.949Z,96302.22
2023-02-24T02:38:15.846Z,96303.00
2023-02-24T02:40:53.866Z,96299.66
2023-02-24T02:43:37.285Z,96294.72
2023-02-24T02:46:14.936Z,96300.84
2023-02-24T02:48:53.800Z,96314.59
2023-02-24T02:51:38.904Z,96314.97
2023-02-24T02:54:18.340Z,96310.38
2023-02-24T02:56:55.345Z,96308.75
2023-02-24T02:59:30.383Z,96313.88
2023-02-24T03:02:11.810Z,96300.59
2023-02-24T03:04:48.155Z,96288.75
2023-02-24T03:07:21.105Z,96278.56
2023-02-24T03:09:58.260Z,96279.19
2023-02-24T03:12:32.742Z,96284.59
2023-02-24T03:15:07.865Z,96281.06
2023-02-24T03:17:47.463Z,96269.41
2023-02-24T03:20:29.290Z,96272.94
2023-02-24T03:23:06.419Z,96260.47
2023-02-24T03:25:48.070Z,96264.13
2023-02-24T03:28:25.564Z,96268.78
2023-02-24T03:31:03.805Z,96265.25
2023-02-24T03:33:41.045Z,96261.13
2023-02-24T03:36:10.700Z,96269.41
2023-02-24T03:38:41.441Z,96265.28
2023-02-24T03:41:11.822Z,96268.00
2023-02-24T03:43:47.681Z,96271.03
2023-02-24T03:46:18.059Z,96274.38
2023-02-24T03:48:55.751Z,96267.03
2023-02-24T03:51:24.644Z,96263.84
2023-02-24T03:54:15.751Z,96261.44
2023-02-24T03:57:00.120Z,96264.47
2023-02-24T03:59:46.400Z,96262.88
2023-02-24T04:02:23.609Z,96259.19
2023-02-24T04:05:01.329Z,96259.97
2023-02-24T04:07:52.308Z,96246.59
2023-02-24T04:10:32.778Z,96254.44
2023-02-24T04:13:14.458Z,96256.31
2023-02-24T04:15:48.978Z,96257.31
2023-02-24T04:18:22.299Z,96254.91
2023-02-24T04:20:53.533Z,96253.78
2023-02-24T04:23:33.642Z,96253.97
2023-02-24T04:26:04.385Z,96250.41
2023-02-24T04:28:35.046Z,96251.09
2023-02-24T04:31:10.771Z,96252.66
2023-02-24T04:33:41.208Z,96255.91
2023-02-24T04:36:13.191Z,96251.25
2023-02-24T04:38:43.152Z,96239.91
2023-02-24T04:41:14.315Z,96244.88
2023-02-24T04:43:42.878Z,96236.22
2023-02-24T04:46:13.527Z,96230.78
2023-02-24T04:48:42.003Z,96226.81
2023-02-24T04:51:10.431Z,96222.47
2023-02-24T04:53:38.868Z,96218.03
2023-02-24T04:56:09.411Z,96210.66
2023-02-24T04:58:42.693Z,96203.31
2023-02-24T05:01:12.746Z,96207.63
2023-02-24T05:03:43.407Z,96209.41
2023-02-24T05:06:18.697Z,96208.25
2023-02-24T05:08:47.218Z,96201.72
2023-02-24T05:11:18.436Z,96205.72
2023-02-24T05:13:48.865Z,96201.09
2023-02-24T05:16:20.493Z,96206.22
2023-02-24T05:18:49.118Z,96204.44
2023-02-24T05:21:36.142Z,96210.69
2023-02-24T05:24:06.974Z,96201.72
2023-02-24T05:26:38.207Z,96197.59
2023-02-24T05:29:09.407Z,96196.94
2023-02-24T05:31:38.375Z,96178.22
2023-02-24T05:34:09.271Z,96168.63
2023-02-24T05:36:41.334Z,96173.75
2023-02-24T05:39:12.510Z,96172.47
2023-02-24T05:41:44.404Z,96161.94
2023-02-24T05:44:16.712Z,96161.94
2023-02-24T05:46:51.112Z,96171.34
2023-02-24T05:49:24.250Z,96161.63
2023-02-24T05:51:58.025Z,96161.31
2023-02-24T05:54:29.499Z,96165.44
2023-02-24T05:57:01.353Z,96151.38
2023-02-24T05:59:33.027Z,96156.00
2023-02-24T06:02:07.149Z,96158.41
2023-02-24T06:04:50.944Z,96160.66
2023-02-24T06:07:26.515Z,96159.22
2023-02-24T06:09:57.831Z,96156.66
2023-02-24T06:12:29.856Z,96149.00
2023-02-24T06:15:00.387Z,96144.97
2023-02-24T06:17:33.132Z,96150.72
2023-02-24T06:20:01.493Z,96154.25
2023-02-24T06:22:29.906Z,96156.97
2023-02-24T06:24:58.279Z,96156.50
2023-02-24T06:27:27.167Z,96155.69
2023-02-24T06:29:57.641Z,96159.69
2023-02-24T06:32:28.175Z,96154.25
2023-02-24T06:34:59.532Z,96157.44
2023-02-24T06:37:30.048Z,96161.47
2023-02-24T06:39:58.545Z,96162.88
2023-02-24T06:42:27.455Z,96161.28
2023-02-24T06:44:56.406Z,96158.25
2023-02-24T06:47:27.106Z,96154.75
2023-02-24T06:49:55.457Z,96155.22
2023-02-24T06:52:26.457Z,96159.53
2023-02-24T06:54:54.861Z,96147.25
2023-02-24T06:57:23.652Z,96149.78
2023-02-24T06:59:52.360Z,96152.84
2023-02-24T07:02:20.779Z,96147.41
2023-02-24T07:04:50.700Z,96155.53
2023-02-24T07:07:19.929Z,96148.34
2023-02-24T07:09:48.203Z,96155.22
2023-02-24T07:12:21.123Z,96156.19
2023-02-24T07:14:50.922Z,96148.38
2023-02-24T07:17:21.006Z,96152.69
2023-02-24T07:19:50.821Z,96146.47
2023-02-24T07:22:25.537Z,96148.22
2023-02-24T07:25:00.502Z,96141.47
2023-02-24T07:27:29.220Z,96144.19
2023-02-24T07:29:59.280Z,96147.56
2023-02-24T07:32:28.928Z,96144.69
2023-02-24T07:34:59.684Z,96137.47
2023-02-24T07:37:31.898Z,96135.25
2023-02-24T07:40:00.270Z,96134.44
2023-02-24T07:42:30.679Z,96129.00
2023-02-24T07:44:59.111Z,96132.81
2023-02-24T07:47:27.751Z,96135.22
2023-02-24T07:50:00.421Z,96130.88
2023-02-24T07:52:32.562Z,96132.53
2023-02-24T07:55:00.833Z,96130.44
2023-02-24T07:57:29.204Z,96126.91
2023-02-24T07:59:57.584Z,96114.25
2023-02-24T08:02:26.285Z,96111.53
2023-02-24T08:04:54.906Z,96114.56
2023-02-24T08:07:30.435Z,96108.13
2023-02-24T08:10:24.396Z,96102.22
2023-02-24T08:12:55.595Z,96100.94
2023-02-24T08:15:26.538Z,96091.16
2023-02-24T08:17:59.637Z,96088.81
2023-02-24T08:20:36.229Z,96082.69
2023-02-24T08:23:08.722Z,96079.56
2023-02-24T08:25:38.514Z,96082.75
2023-02-24T08:28:11.796Z,96088.69
2023-02-24T08:30:46.070Z,96083.25
2023-02-24T08:33:23.549Z,96088.53
2023-02-24T08:36:01.814Z,96080.13
2023-02-24T08:38:45.419Z,96083.09
2023-02-24T08:41:20.358Z,96079.25
2023-02-24T08:43:50.389Z,96089.16
2023-02-24T08:46:26.578Z,96071.41
2023-02-24T08:49:00.683Z,96080.56
2023-02-24T08:51:35.094Z,96071.59
2023-02-24T08:54:11.406Z,96061.31
2023-02-24T08:56:43.808Z,96059.88
2023-02-24T08:59:29.280Z,96058.31
2023-02-24T09:02:14.061Z,96067.53
2023-02-24T09:04:44.978Z,96066.63
2023-02-24T09:07:20.847Z,96069.06
2023-02-24T09:09:49.540Z,96069.06
2023-02-24T09:12:25.769Z,96060.53
2023-02-24T09:15:01.101Z,96067.38
2023-02-24T09:17:51.051Z,96058.09
2023-02-24T09:20:51.833Z,96037.19
2023-02-24T09:23:21.166Z,96038.84
2023-02-24T09:25:54.492Z,96049.56
2023-02-24T09:28:27.120Z,96046.81
2023-02-24T09:30:58.625Z,96055.22
2023-02-24T09:33:29.497Z,96047.81
2023-02-24T09:36:14.326Z,96048.59
2023-02-24T09:38:59.866Z,96047.72
2023-02-24T09:41:54.025Z,96043.13
2023-02-24T09:44:35.004Z,96039.91
2023-02-24T09:47:20.163Z,96035.38
2023-02-24T09:49:56.406Z,96028.16
2023-02-24T09:52:39.778Z,96030.47
2023-02-24T09:55:29.560Z,96020.78
2023-02-24T09:58:34.785Z,96022.75
2023-02-24T10:01:33.562Z,96023.50
2023-02-24T10:04:20.770Z,96017.06
2023-02-24T10:06:51.922Z,96016.66
2023-02-24T10:09:27.089Z,96017.06
2023-02-24T10:12:04.662Z,96016.25
2023-02-24T10:14:44.725Z,96012.00
2023-02-24T10:17:24.446Z,96004.34
2023-02-24T10:20:01.197Z,96004.09
2023-02-24T10:22:50.841Z,95994.41
2023-02-24T10:25:41.197Z,95987.97
2023-02-24T10:28:35.737Z,95990.03
2023-02-24T10:31:36.844Z,95991.56
2023-02-24T10:34:12.654Z,95983.47
2023-02-24T10:36:41.873Z,95983.47
2023-02-24T10:39:20.466Z,95980.75
2023-02-24T10:41:57.506Z,95974.59
2023-02-24T10:44:36.147Z,95974.31
2023-02-24T10:47:14.271Z,95978.94
2023-02-24T10:49:57.190Z,95969.75
2023-02-24T10:52:51.100Z,95965.50
2023-02-24T10:55:53.573Z,95958.03
2023-02-24T10:58:37.804Z,95950.97
2023-02-24T11:01:18.172Z,95940.53
2023-02-24T11:04:09.784Z,95939.19
2023-02-24T11:06:52.758Z,95941.16
2023-02-24T11:09:44.133Z,95936.91
2023-02-24T11:12:38.241Z,95918.50
2023-02-24T11:15:37.336Z,95921.31
2023-02-24T11:18:08.820Z,95919.03
2023-02-24T11:20:49.344Z,95917.66
2023-02-24T11:23:25.945Z,95896.97
2023-02-24T11:26:00.882Z,95895.53
2023-02-24T11:28:48.929Z,95900.44
2023-02-24T11:31:56.098Z,95889.53
2023-02-24T11:34:34.224Z,95879.81
2023-02-24T11:37:24.379Z,95866.56
2023-02-24T11:40:01.939Z,95870.28
2023-02-24T11:42:42.048Z,95862.56
2023-02-24T11:45:26.408Z,95856.56
2023-02-24T11:48:04.908Z,95845.78
2023-02-24T11:50:48.604Z,95845.00
2023-02-24T11:53:31.426Z,95838.84
2023-02-24T11:56:07.905Z,95830.91
2023-02-24T11:58:44.309Z,95833.31
2023-02-24T12:01:22.401Z,95826.59
2023-02-24T12:04:02.923Z,95824.66
2023-02-24T12:06:39.216Z,95818.75
2023-02-24T12:09:18.940Z,95817.38
2023-02-24T12:12:03.389Z,95810.13
2023-02-24T12:14:39.797Z,95802.31
2023-02-24T12:17:19.245Z,95804.78
2023-02-24T12:20:05.665Z,95804.13
2023-02-24T12:22:46.542Z,95793.78
2023-02-24T12:25:16.836Z,95793.66
2023-02-24T12:28:10.966Z,95795.38
2023-02-24T12:31:12.531Z,95792.19
2023-02-24T12:33:58.702Z,95790.50
2023-02-24T12:37:01.692Z,95777.09
2023-02-24T12:39:39.460Z,95772.97
2023-02-24T12:42:22.566Z,95766.41
2023-02-24T12:45:02.526Z,95763.81
2023-02-24T12:47:51.592Z,95759.84
2023-02-24T12:50:45.805Z,95766.44
2023-02-24T12:53:23.856Z,95754.75
2023-02-24T12:56:07.386Z,95752.94
2023-02-24T12:58:40.982Z,95748.28
2023-02-24T13:01:23.471Z,95747.81
2023-02-24T13:04:13.879Z,95744.31
2023-02-24T13:07:06.224Z,95731.47
2023-02-24T13:09:47.133Z,95728.88
2023-02-24T13:12:28.329Z,95729.78
2023-02-24T13:14:57.557Z,95730.59
2023-02-24T13:17:28.251Z,95728.63
2023-02-24T13:20:10.931Z,95706.63
2023-02-24T13:22:44.704Z,95714.75
2023-02-24T13:25:23.601Z,95698.28
2023-02-24T13:28:08.167Z,95710.00
2023-02-24T13:30:45.065Z,95702.50
2023-02-24T13:33:29.806Z,95692.69
2023-02-24T13:36:14.343Z,95686.53
2023-02-24T13:38:46.128Z,95683.06
2023-02-24T13:41:41.811Z,95674.34
2023-02-24T13:44:27.546Z,95670.41
2023-02-24T13:47:47.739Z,95658.78
2023-02-24T13:50:26.261Z,95654.16
2023-02-24T13:53:29.715Z,95659.28
2023-02-24T13:56:25.954Z,95664.50
2023-02-24T13:59:18.217Z,95652.00
2023-02-24T14:01:53.107Z,95645.16
2023-02-24T14:04:29.308Z,95637.66
2023-02-24T14:07:05.845Z,95632.47
2023-02-24T14:09:40.771Z,95632.50
2023-02-24T14:12:16.574Z,95632.63
2023-02-24T14:14:47.050Z,95620.41
2023-02-24T14:17:28.843Z,95613.28
2023-02-24T14:20:09.801Z,95610.97
2023-02-24T14:22:46.122Z,95612.34
2023-02-24T14:25:15.816Z,95618.47
2023-02-24T14:27:47.357Z,95620.22
2023-02-24T14:30:32.716Z,95620.47
2023-02-24T14:33:03.627Z,95614.78
2023-02-24T14:35:38.615Z,95620.72
2023-02-24T14:38:27.888Z,95615.31
2023-02-24T14:40:56.281Z,95623.41
2023-02-24T14:43:25.191Z,95616.72
2023-02-24T14:45:57.611Z,95605.88
2023-02-24T14:48:28.996Z,95601.94
2023-02-24T14:51:03.039Z,95594.19
2023-02-24T14:53:39.913Z,95598.88
2023-02-24T14:56:13.610Z,95594.19
2023-02-24T14:58:48.723Z,95587.06
2023-02-24T15:01:25.613Z,95589.88
2023-02-24T15:04:02.147Z,95587.06
2023-02-24T15:06:40.720Z,95581.06
2023-02-24T15:09:17.384Z,95571.66
2023-02-24T15:11:46.411Z,95551.09
2023-02-24T15:14:24.506Z,95547.03
2023-02-24T15:16:58.015Z,95543.88
2023-02-24T15:19:32.571Z,95550.00
2023-02-24T15:22:01.643Z,95538.75
2023-02-24T15:24:35.119Z,95536.53
2023-02-24T15:27:22.244Z,95538.03
2023-02-24T15:30:05.697Z,95542.69
2023-02-24T15:32:38.680Z,95531.97
2023-02-24T15:35:08.730Z,95534.97
2023-02-24T15:37:44.760Z,95535.22
2023-02-24T15:40:23.296Z,95534.66
2023-02-24T15:42:55.445Z,95525.34
2023-02-24T15:45:30.187Z,95528.00
2023-02-24T15:48:01.420Z,95526.03
2023-02-24T15:50:32.952Z,95514.81
2023-02-24T15:53:05.416Z,95495.03
2023-02-24T15:55:35.139Z,95499.66
2023-02-24T15:58:05.506Z,95503.56
2023-02-24T16:00:33.955Z,95498.53
2023-02-24T16:03:02.552Z,95498.97
2023-02-24T16:05:30.918Z,95492.56
2023-02-24T16:07:59.508Z,95503.47
2023-02-24T16:10:31.087Z,95498.34
2023-02-24T16:13:03.139Z,95498.34
2023-02-24T16:15:35.644Z,95495.16
2023-02-24T16:18:04.100Z,95492.44
2023-02-24T16:20:34.101Z,95490.88
2023-02-24T16:23:06.388Z,95491.91
2023-02-24T16:25:41.283Z,95486.13
2023-02-24T16:28:16.539Z,95494.38
2023-02-24T16:30:46.636Z,95477.94
2023-02-24T16:33:16.483Z,95473.47
2023-02-24T16:35:45.537Z,95481.81
2023-02-24T16:38:16.830Z,95481.53
2023-02-24T16:40:48.639Z,95477.56
2023-02-24T16:43:19.810Z,95474.66
2023-02-24T16:45:48.953Z,95475.34
2023-02-24T16:48:22.709Z,95473.75
2023-02-24T16:50:51.708Z,95472.66
2023-02-24T16:53:28.003Z,95464.41
2023-02-24T16:55:56.333Z,95452.59
2023-02-24T16:58:26.166Z,95464.44
2023-02-24T17:01:03.445Z,95464.09
2023-02-24T17:03:43.700Z,95458.22
2023-02-24T17:06:12.152Z,95452.97
2023-02-24T17:08:41.621Z,95459.13
2023-02-24T17:11:14.343Z,95456.53
2023-02-24T17:13:44.748Z,95448.00
2023-02-24T17:16:14.566Z,95451.75
2023-02-24T17:18:43.134Z,95457.78
2023-02-24T17:21:14.558Z,95456.31
2023-02-24T17:23:43.604Z,95458.47
2023-02-24T17:26:16.154Z,95452.34
2023-02-24T17:28:46.254Z,95456.56
2023-02-24T17:31:15.153Z,95463.16
2023-02-24T17:33:43.491Z,95457.34
2023-02-24T17:36:11.820Z,95455.66
2023-02-24T17:38:40.094Z,95460.44
2023-02-24T17:41:08.585Z,95456.00
2023-02-24T17:43:37.257Z,95458.03
2023-02-24T17:46:07.587Z,95453.03
2023-02-24T17:48:36.325Z,95458.81
2023-02-24T17:51:05.008Z,95452.25
2023-02-24T17:53:33.381Z,95446.50
2023-02-24T17:56:06.800Z,95438.91
2023-02-24T17:58:36.122Z,95450.38
2023-02-24T18:01:07.854Z,95444.13
2023-02-24T18:03:37.524Z,95443.13
2023-02-24T18:06:09.456Z,95448.09
2023-02-24T18:08:40.562Z,95448.81
2023-02-24T18:11:13.850Z,95440.88
2023-02-24T18:13:42.205Z,95440.53
2023-02-24T18:16:16.065Z,95443.97
2023-02-24T18:18:45.893Z,95429.56
2023-02-24T18:21:14.198Z,95431.63
2023-02-24T18:23:42.626Z,95429.34
2023-02-24T18:26:13.815Z,95432.31
2023-02-24T18:28:42.402Z,95433.13
2023-02-24T18:31:27.377Z,95423.84
2023-02-24T18:33:58.067Z,95432.66
2023-02-24T18:36:27.414Z,95432.09
2023-02-24T18:38:58.685Z,95425.75
2023-02-24T18:41:27.836Z,95415.56
2023-02-24T18:43:59.168Z,95417.50
2023-02-24T18:46:29.881Z,95417.50
2023-02-24T18:48:59.002Z,95402.66
2023-02-24T18:51:29.057Z,95396.97
2023-02-24T18:54:00.438Z,95400.03
2023-02-24T18:56:32.085Z,95408.84
2023-02-24T18:59:02.502Z,95409.19
2023-02-24T19:01:34.571Z,95406.25
2023-02-24T19:04:04.153Z,95412.47
2023-02-24T19:06:34.694Z,95414.75
2023-02-24T19:09:09.742Z,95409.09
2023-02-24T19:11:39.485Z,95414.88
2023-02-24T19:14:11.984Z,95415.56
2023-02-24T19:16:42.600Z,95411.50
2023-02-24T19:19:14.912Z,95405.59
2023-02-24T19:21:45.503Z,95408.63
2023-02-24T19:24:14.303Z,95402.22
2023-02-24T19:26:46.081Z,95406.38
2023-02-24T19:29:17.663Z,95403.09
2023-02-24T19:31:54.102Z,95407.66
2023-02-24T19:34:22.773Z,95402.41
2023-02-24T19:36:51.227Z,95395.53
2023-02-24T19:39:20.114Z,95404.94
2023-02-24T19:41:49.758Z,95397.31
2023-02-24T19:44:18.186Z,95394.59
2023-02-24T19:46:47.888Z,95394.94
2023-02-24T19:49:16.156Z,95387.56
2023-02-24T19:51:46.638Z,95381.94
2023-02-24T19:54:16.499Z,95389.06
2023-02-24T19:56:45.216Z,95381.59
2023-02-24T19:59:13.627Z,95371.72
2023-02-24T20:01:42.803Z,95379.78
2023-02-24T20:04:13.028Z,95377.16
2023-02-24T20:06:44.043Z,95381.81
2023-02-24T20:09:17.655Z,95377.72
2023-02-24T20:11:47.856Z,95374.56
2023-02-24T20:14:18.485Z,95376.25
2023-02-24T20:16:48.518Z,95368.00
2023-02-24T20:19:18.620Z,95373.41
2023-02-24T20:21:50.031Z,95364.38
2023-02-24T20:24:22.986Z,95364.47
2023-02-24T20:26:51.360Z,95359.16
2023-02-24T20:29:22.503Z,95369.66
2023-02-24T20:31:51.693Z,95372.53
2023-02-24T20:34:22.065Z,95370.47
2023-02-24T20:36:50.467Z,95371.59
2023-02-24T20:39:18.935Z,95369.91
2023-02-24T20:41:47.251Z,95374.78
2023-02-24T20:44:15.638Z,95376.38
2023-02-24T20:46:45.172Z,95390.38
2023-02-24T20:49:15.693Z,95398.31
2023-02-24T20:51:45.618Z,95403.94
2023-02-24T20:54:15.735Z,95405.53
2023-02-24T20:56:46.682Z,95409.22
2023-02-24T20:59:18.125Z,95408.63
2023-02-24T21:01:48.679Z,95400.97
2023-02-24T21:04:21.311Z,95405.00
2023-02-24T21:06:52.034Z,95399.25
2023-02-24T21:09:20.718Z,95401.94
2023-02-24T21:11:49.125Z,95403.69
2023-02-24T21:14:18.570Z,95397.44
2023-02-24T21:16:47.133Z,95401.63
2023-02-24T21:19:17.890Z,95404.00
2023-02-24T21:21:46.364Z,95393.88
2023-02-24T21:24:19.674Z,95401.34
2023-02-24T21:26:48.722Z,95392.22
2023-02-24T21:29:17.473Z,95388.59
2023-02-24T21:31:50.284Z,95404.44
2023-02-24T21:34:19.120Z,95408.78
2023-02-24T21:36:47.537Z,95405.63
2023-02-24T21:39:18.100Z,95403.56
2023-02-24T21:41:49.720Z,95397.81
2023-02-24T21:44:18.149Z,95407.75
2023-02-24T21:46:46.874Z,95414.78
2023-02-24T21:49:15.418Z,95415.44
2023-02-24T21:51:43.846Z,95418.59
2023-02-24T21:54:14.326Z,95433.28
2023-02-24T21:56:44.102Z,95452.50
2023-02-24T21:59:12.819Z,95438.72
2023-02-24T22:01:44.420Z,95452.31
2023-02-24T22:04:17.196Z,95453.09
2023-02-24T22:06:46.298Z,95457.44
2023-02-24T22:09:19.469Z,95464.13
2023-02-24T22:11:51.291Z,95470.50
2023-02-24T22:14:20.516Z,95468.28
2023-02-24T22:16:48.911Z,95466.69
2023-02-24T22:19:19.120Z,95465.88
2023-02-24T22:21:47.857Z,95464.75
2023-02-24T22:24:19.195Z,95457.13
2023-02-24T22:26:49.319Z,95477.00
2023-02-24T22:29:21.686Z,95481.78
2023-02-24T22:31:50.346Z,95481.78
2023-02-24T22:34:19.338Z,95480.03
2023-02-24T22:36:48.062Z,95480.50
2023-02-24T22:39:17.110Z,95469.53
2023-02-24T22:41:47.591Z,95467.59
2023-02-24T22:44:19.332Z,95480.81
2023-02-24T22:46:48.964Z,95480.31
2023-02-24T22:49:18.511Z,95478.88
2023-02-24T22:51:46.932Z,95471.25
2023-02-24T22:54:15.750Z,95464.91
2023-02-24T22:56:44.634Z,95451.72
2023-02-24T22:59:14.131Z,95462.03
2023-02-24T23:01:44.145Z,95462.03
2023-02-24T23:04:18.212Z,95452.34
2023-02-24T23:06:47.598Z,95445.50
2023-02-24T23:09:19.887Z,95463.31
2023-02-24T23:11:49.691Z,95467.44
2023-02-24T23:14:18.297Z,95469.06
2023-02-24T23:16:53.695Z,95479.03
2023-02-24T23:19:23.123Z,95480.00
2023-02-24T23:21:54.218Z,95487.78
2023-02-24T23:24:24.143Z,95485.25
2023-02-24T23:26:57.678Z,95478.56
2023-02-24T23:29:30.787Z,95486.06
2023-02-24T23:32:00.657Z,95493.22
2023-02-24T23:34:32.853Z,95488.91
2023-02-24T23:37:01.202Z,95491.63
2023-02-24T23:39:29.602Z,95493.69
2023-02-24T23:41:57.935Z,95500.97
2023-02-24T23:44:26.755Z,95504.66
2023-02-24T23:46:58.163Z,95518.00
2023-02-24T23:49:39.084Z,95514.63
2023-02-24T23:52:14.884Z,95515.44
2023-02-24T23:54:43.630Z,95514.84
2023-02-24T23:57:12.330Z,95513.22
2023-02-24T23:59:40.788Z,95523.59
